sensor_id;sensor_type;location;lat;lon;timestamp;P1;durP1;ratioP1;P2;durP2;ratioP2
29184;SDS011;16233;47.964;-3.842;2022-10-16T00:01:26;13.43;;;1.60;;
29184;SDS011;16233;47.964;-3.842;2022-10-16T00:03:28;10.00;;;1.63;;
29184;SDS011;16233;47.964;-3.842;2022-10-16T00:05:29;5.93;;;1.38;;
29184;SDS011;16233;47.964;-3.842;2022-10-16T00:07:30;6.47;;;1.50;;
29184;SDS011;16233;47.964;-3.842;2022-10-16T00:09:31;5.43;;;1.50;;
29184;SDS011;16233;47.964;-3.842;2022-10-16T00:11:33;8.18;;;1.20;;
29184;SDS011;16233;47.964;-3.842;2022-10-16T00:13:35;7.97;;;1.83;;
29184;SDS011;16233;47.964;-3.842;2022-10-16T00:15:39;8.77;;;1.67;;
29184;SDS011;16233;47.964;-3.842;2022-10-16T00:17:40;6.78;;;1.70;;
29184;SDS011;16233;47.964;-3.842;2022-10-16T00:19:41;8.75;;;1.52;;
29184;SDS011;16233;47.964;-3.842;2022-10-16T00:21:42;11.23;;;2.00;;
29184;SDS011;16233;47.964;-3.842;2022-10-16T00:23:43;10.98;;;1.90;;
29184;SDS011;16233;47.964;-3.842;2022-10-16T00:25:45;6.25;;;1.42;;
29184;SDS011;16233;47.964;-3.842;2022-10-16T00:27:54;12.23;;;1.90;;
29184;SDS011;16233;47.964;-3.842;2022-10-16T00:29:55;8.63;;;1.77;;
29184;SDS011;16233;47.964;-3.842;2022-10-16T00:31:58;10.70;;;1.98;;
29184;SDS011;16233;47.964;-3.842;2022-10-16T00:33:58;5.30;;;1.58;;
29184;SDS011;16233;47.964;-3.842;2022-10-16T00:36:00;12.23;;;1.98;;
29184;SDS011;16233;47.964;-3.842;2022-10-16T00:38:01;4.32;;;1.52;;
29184;SDS011;16233;47.964;-3.842;2022-10-16T00:40:02;8.48;;;1.63;;
29184;SDS011;16233;47.964;-3.842;2022-10-16T00:42:04;7.45;;;1.80;;
29184;SDS011;16233;47.964;-3.842;2022-10-16T00:46:40;6.50;;;1.83;;
29184;SDS011;16233;47.964;-3.842;2022-10-16T00:48:45;7.93;;;1.70;;
29184;SDS011;16233;47.964;-3.842;2022-10-16T00:50:50;4.60;;;1.40;;
29184;SDS011;16233;47.964;-3.842;2022-10-16T00:52:51;5.22;;;1.30;;
29184;SDS011;16233;47.964;-3.842;2022-10-16T00:54:53;4.70;;;1.52;;
29184;SDS011;16233;47.964;-3.842;2022-10-16T00:56:56;11.27;;;1.88;;
29184;SDS011;16233;47.964;-3.842;2022-10-16T00:59:00;4.85;;;1.25;;
29184;SDS011;16233;47.964;-3.842;2022-10-16T01:01:03;8.60;;;2.38;;
29184;SDS011;16233;47.964;-3.842;2022-10-16T01:07:33;4.22;;;1.33;;
29184;SDS011;16233;47.964;-3.842;2022-10-16T01:09:47;9.25;;;1.73;;
29184;SDS011;16233;47.964;-3.842;2022-10-16T01:11:57;8.63;;;1.70;;
29184;SDS011;16233;47.964;-3.842;2022-10-16T01:14:07;9.73;;;1.50;;
29184;SDS011;16233;47.964;-3.842;2022-10-16T01:16:15;9.15;;;1.65;;
29184;SDS011;16233;47.964;-3.842;2022-10-16T01:18:21;13.40;;;1.52;;
29184;SDS011;16233;47.964;-3.842;2022-10-16T01:20:32;12.07;;;1.40;;
29184;SDS011;16233;47.964;-3.842;2022-10-16T01:22:37;7.85;;;1.23;;
29184;SDS011;16233;47.964;-3.842;2022-10-16T01:24:43;9.02;;;1.65;;
29184;SDS011;16233;47.964;-3.842;2022-10-16T01:29:06;7.78;;;1.40;;
29184;SDS011;16233;47.964;-3.842;2022-10-16T01:31:13;6.18;;;1.30;;
29184;SDS011;16233;47.964;-3.842;2022-10-16T01:33:19;7.47;;;1.77;;
29184;SDS011;16233;47.964;-3.842;2022-10-16T01:35:23;7.63;;;1.40;;
29184;SDS011;16233;47.964;-3.842;2022-10-16T01:37:29;6.93;;;1.73;;
29184;SDS011;16233;47.964;-3.842;2022-10-16T01:39:35;5.53;;;1.40;;
29184;SDS011;16233;47.964;-3.842;2022-10-16T01:41:41;5.05;;;1.40;;
29184;SDS011;16233;47.964;-3.842;2022-10-16T01:43:48;5.75;;;1.52;;
29184;SDS011;16233;47.964;-3.842;2022-10-16T01:45:53;4.72;;;1.25;;
29184;SDS011;16233;47.964;-3.842;2022-10-16T01:47:54;8.80;;;1.50;;
29184;SDS011;16233;47.964;-3.842;2022-10-16T01:49:57;9.57;;;1.55;;
29184;SDS011;16233;47.964;-3.842;2022-10-16T01:51:59;20.17;;;1.40;;
29184;SDS011;16233;47.964;-3.842;2022-10-16T01:54:06;49.55;;;2.00;;
29184;SDS011;16233;47.964;-3.842;2022-10-16T01:56:09;13.95;;;1.73;;
29184;SDS011;16233;47.964;-3.842;2022-10-16T01:58:13;6.82;;;1.42;;
29184;SDS011;16233;47.964;-3.842;2022-10-16T02:00:16;3.53;;;1.08;;
29184;SDS011;16233;47.964;-3.842;2022-10-16T02:02:20;288.50;;;6.63;;
29184;SDS011;16233;47.964;-3.842;2022-10-16T02:04:23;33.75;;;1.85;;
29184;SDS011;16233;47.964;-3.842;2022-10-16T02:06:28;6.28;;;0.95;;
29184;SDS011;16233;47.964;-3.842;2022-10-16T02:08:29;35.13;;;2.00;;
29184;SDS011;16233;47.964;-3.842;2022-10-16T02:10:31;2.05;;;1.40;;
29184;SDS011;16233;47.964;-3.842;2022-10-16T02:12:35;2.90;;;1.20;;
29184;SDS011;16233;47.964;-3.842;2022-10-16T02:14:39;10.10;;;1.98;;
29184;SDS011;16233;47.964;-3.842;2022-10-16T02:16:45;25.50;;;1.90;;
29184;SDS011;16233;47.964;-3.842;2022-10-16T02:18:46;6.53;;;1.27;;
29184;SDS011;16233;47.964;-3.842;2022-10-16T02:20:48;3.38;;;1.23;;
29184;SDS011;16233;47.964;-3.842;2022-10-16T02:22:54;1.85;;;0.80;;
29184;SDS011;16233;47.964;-3.842;2022-10-16T02:24:58;1.20;;;1.10;;
29184;SDS011;16233;47.964;-3.842;2022-10-16T02:27:03;5.80;;;1.98;;
29184;SDS011;16233;47.964;-3.842;2022-10-16T02:29:10;5.15;;;1.15;;
29184;SDS011;16233;47.964;-3.842;2022-10-16T02:31:16;10.40;;;2.45;;
29184;SDS011;16233;47.964;-3.842;2022-10-16T02:33:24;4.55;;;1.40;;
29184;SDS011;16233;47.964;-3.842;2022-10-16T02:35:27;28.00;;;1.77;;
29184;SDS011;16233;47.964;-3.842;2022-10-16T02:37:29;3.47;;;1.30;;
29184;SDS011;16233;47.964;-3.842;2022-10-16T02:39:31;4.85;;;1.30;;
29184;SDS011;16233;47.964;-3.842;2022-10-16T02:41:33;2.40;;;1.30;;
29184;SDS011;16233;47.964;-3.842;2022-10-16T02:43:34;4.53;;;1.25;;
29184;SDS011;16233;47.964;-3.842;2022-10-16T02:45:36;5.07;;;1.30;;
29184;SDS011;16233;47.964;-3.842;2022-10-16T02:47:37;10.38;;;1.38;;
29184;SDS011;16233;47.964;-3.842;2022-10-16T02:49:39;3.63;;;1.50;;
29184;SDS011;16233;47.964;-3.842;2022-10-16T02:51:40;145.90;;;3.72;;
29184;SDS011;16233;47.964;-3.842;2022-10-16T02:53:41;3.47;;;1.00;;
29184;SDS011;16233;47.964;-3.842;2022-10-16T02:55:42;39.13;;;1.58;;
29184;SDS011;16233;47.964;-3.842;2022-10-16T02:57:43;6.75;;;1.25;;
29184;SDS011;16233;47.964;-3.842;2022-10-16T02:59:44;7.65;;;1.40;;
29184;SDS011;16233;47.964;-3.842;2022-10-16T03:01:45;2.78;;;0.90;;
29184;SDS011;16233;47.964;-3.842;2022-10-16T03:03:46;6.93;;;1.20;;
29184;SDS011;16233;47.964;-3.842;2022-10-16T03:05:49;2.25;;;0.82;;
29184;SDS011;16233;47.964;-3.842;2022-10-16T03:07:50;1.92;;;0.95;;
29184;SDS011;16233;47.964;-3.842;2022-10-16T03:09:51;7.90;;;1.08;;
29184;SDS011;16233;47.964;-3.842;2022-10-16T03:11:52;2.28;;;0.80;;
29184;SDS011;16233;47.964;-3.842;2022-10-16T03:13:53;14.40;;;1.20;;
29184;SDS011;16233;47.964;-3.842;2022-10-16T03:15:54;183.48;;;4.15;;
29184;SDS011;16233;47.964;-3.842;2022-10-16T03:17:55;2.58;;;0.90;;
29184;SDS011;16233;47.964;-3.842;2022-10-16T03:19:57;3.85;;;1.27;;
29184;SDS011;16233;47.964;-3.842;2022-10-16T03:22:00;11.82;;;1.50;;
29184;SDS011;16233;47.964;-3.842;2022-10-16T03:24:01;32.58;;;1.75;;
29184;SDS011;16233;47.964;-3.842;2022-10-16T03:26:02;1.27;;;1.17;;
29184;SDS011;16233;47.964;-3.842;2022-10-16T03:28:03;4.43;;;1.38;;
29184;SDS011;16233;47.964;-3.842;2022-10-16T03:30:05;1.98;;;0.98;;
29184;SDS011;16233;47.964;-3.842;2022-10-16T03:32:06;0.82;;;0.77;;
29184;SDS011;16233;47.964;-3.842;2022-10-16T03:34:07;9.68;;;1.30;;
29184;SDS011;16233;47.964;-3.842;2022-10-16T03:36:09;5.15;;;1.00;;
29184;SDS011;16233;47.964;-3.842;2022-10-16T03:38:11;5.32;;;1.05;;
29184;SDS011;16233;47.964;-3.842;2022-10-16T03:40:12;3.95;;;1.08;;
29184;SDS011;16233;47.964;-3.842;2022-10-16T03:42:13;4.05;;;1.55;;
29184;SDS011;16233;47.964;-3.842;2022-10-16T03:44:14;19.63;;;1.77;;
29184;SDS011;16233;47.964;-3.842;2022-10-16T03:46:16;21.58;;;1.80;;
29184;SDS011;16233;47.964;-3.842;2022-10-16T03:48:17;13.27;;;1.52;;
29184;SDS011;16233;47.964;-3.842;2022-10-16T03:50:18;8.60;;;1.50;;
29184;SDS011;16233;47.964;-3.842;2022-10-16T03:52:19;11.30;;;1.38;;
29184;SDS011;16233;47.964;-3.842;2022-10-16T03:54:21;7.82;;;1.70;;
29184;SDS011;16233;47.964;-3.842;2022-10-16T03:56:22;17.20;;;2.00;;
29184;SDS011;16233;47.964;-3.842;2022-10-16T03:58:23;9.13;;;2.08;;
29184;SDS011;16233;47.964;-3.842;2022-10-16T04:00:24;8.88;;;2.42;;
29184;SDS011;16233;47.964;-3.842;2022-10-16T04:02:25;10.13;;;1.50;;
29184;SDS011;16233;47.964;-3.842;2022-10-16T04:04:26;10.07;;;1.73;;
29184;SDS011;16233;47.964;-3.842;2022-10-16T04:06:27;3.55;;;1.45;;
29184;SDS011;16233;47.964;-3.842;2022-10-16T04:08:28;4.93;;;1.38;;
29184;SDS011;16233;47.964;-3.842;2022-10-16T04:10:30;5.35;;;1.23;;
29184;SDS011;16233;47.964;-3.842;2022-10-16T04:12:32;7.22;;;1.50;;
29184;SDS011;16233;47.964;-3.842;2022-10-16T04:14:33;12.38;;;1.50;;
29184;SDS011;16233;47.964;-3.842;2022-10-16T04:16:33;10.25;;;1.63;;
29184;SDS011;16233;47.964;-3.842;2022-10-16T04:18:34;2.95;;;1.25;;
29184;SDS011;16233;47.964;-3.842;2022-10-16T04:20:35;20.38;;;1.52;;
29184;SDS011;16233;47.964;-3.842;2022-10-16T04:22:36;15.63;;;1.50;;
29184;SDS011;16233;47.964;-3.842;2022-10-16T04:24:37;33.40;;;1.75;;
29184;SDS011;16233;47.964;-3.842;2022-10-16T04:26:40;17.38;;;1.58;;
29184;SDS011;16233;47.964;-3.842;2022-10-16T04:28:41;22.83;;;1.85;;
29184;SDS011;16233;47.964;-3.842;2022-10-16T04:30:42;10.73;;;1.30;;
29184;SDS011;16233;47.964;-3.842;2022-10-16T04:32:43;9.80;;;1.48;;
29184;SDS011;16233;47.964;-3.842;2022-10-16T04:34:48;22.52;;;1.83;;
29184;SDS011;16233;47.964;-3.842;2022-10-16T04:36:49;11.60;;;2.17;;
29184;SDS011;16233;47.964;-3.842;2022-10-16T04:38:50;9.90;;;1.60;;
29184;SDS011;16233;47.964;-3.842;2022-10-16T04:40:51;9.95;;;1.70;;
29184;SDS011;16233;47.964;-3.842;2022-10-16T04:42:54;11.65;;;1.80;;
29184;SDS011;16233;47.964;-3.842;2022-10-16T04:44:55;19.48;;;1.90;;
29184;SDS011;16233;47.964;-3.842;2022-10-16T04:46:56;3.78;;;1.60;;
29184;SDS011;16233;47.964;-3.842;2022-10-16T04:48:57;2.22;;;1.35;;
29184;SDS011;16233;47.964;-3.842;2022-10-16T04:50:58;15.77;;;2.03;;
29184;SDS011;16233;47.964;-3.842;2022-10-16T04:52:59;19.92;;;1.83;;
29184;SDS011;16233;47.964;-3.842;2022-10-16T04:55:00;6.30;;;1.98;;
29184;SDS011;16233;47.964;-3.842;2022-10-16T04:57:01;7.55;;;1.65;;
29184;SDS011;16233;47.964;-3.842;2022-10-16T04:59:04;17.52;;;2.20;;
29184;SDS011;16233;47.964;-3.842;2022-10-16T05:01:05;10.00;;;1.60;;
29184;SDS011;16233;47.964;-3.842;2022-10-16T05:03:06;27.52;;;2.10;;
29184;SDS011;16233;47.964;-3.842;2022-10-16T05:05:07;54.28;;;2.55;;
29184;SDS011;16233;47.964;-3.842;2022-10-16T05:07:09;18.85;;;1.80;;
29184;SDS011;16233;47.964;-3.842;2022-10-16T05:09:09;19.05;;;2.38;;
29184;SDS011;16233;47.964;-3.842;2022-10-16T05:11:10;12.23;;;1.77;;
29184;SDS011;16233;47.964;-3.842;2022-10-16T05:13:11;34.28;;;2.20;;
29184;SDS011;16233;47.964;-3.842;2022-10-16T05:15:14;16.55;;;1.75;;
29184;SDS011;16233;47.964;-3.842;2022-10-16T05:17:15;15.45;;;1.83;;
29184;SDS011;16233;47.964;-3.842;2022-10-16T05:19:16;23.75;;;2.22;;
29184;SDS011;16233;47.964;-3.842;2022-10-16T05:21:17;13.75;;;1.98;;
29184;SDS011;16233;47.964;-3.842;2022-10-16T05:23:18;19.35;;;1.70;;
29184;SDS011;16233;47.964;-3.842;2022-10-16T05:25:19;32.83;;;2.30;;
29184;SDS011;16233;47.964;-3.842;2022-10-16T05:27:20;23.30;;;1.60;;
29184;SDS011;16233;47.964;-3.842;2022-10-16T05:29:21;16.58;;;1.70;;
29184;SDS011;16233;47.964;-3.842;2022-10-16T05:31:24;16.60;;;1.90;;
29184;SDS011;16233;47.964;-3.842;2022-10-16T05:33:25;13.30;;;1.70;;
29184;SDS011;16233;47.964;-3.842;2022-10-16T05:35:26;13.07;;;1.63;;
29184;SDS011;16233;47.964;-3.842;2022-10-16T05:37:27;10.27;;;2.03;;
29184;SDS011;16233;47.964;-3.842;2022-10-16T05:39:28;5.63;;;1.58;;
29184;SDS011;16233;47.964;-3.842;2022-10-16T05:41:29;14.93;;;2.20;;
29184;SDS011;16233;47.964;-3.842;2022-10-16T05:43:30;8.68;;;1.70;;
29184;SDS011;16233;47.964;-3.842;2022-10-16T05:45:31;29.75;;;1.98;;
29184;SDS011;16233;47.964;-3.842;2022-10-16T05:47:34;21.80;;;2.20;;
29184;SDS011;16233;47.964;-3.842;2022-10-16T05:49:35;24.90;;;2.13;;
29184;SDS011;16233;47.964;-3.842;2022-10-16T05:51:36;11.88;;;2.22;;
29184;SDS011;16233;47.964;-3.842;2022-10-16T05:53:38;20.17;;;1.95;;
29184;SDS011;16233;47.964;-3.842;2022-10-16T05:55:40;5.60;;;2.08;;
29184;SDS011;16233;47.964;-3.842;2022-10-16T05:57:41;15.07;;;2.30;;
29184;SDS011;16233;47.964;-3.842;2022-10-16T05:59:42;14.40;;;2.08;;
29184;SDS011;16233;47.964;-3.842;2022-10-16T06:01:43;18.50;;;2.50;;
29184;SDS011;16233;47.964;-3.842;2022-10-16T06:03:46;14.13;;;1.90;;
29184;SDS011;16233;47.964;-3.842;2022-10-16T06:05:47;18.13;;;2.15;;
29184;SDS011;16233;47.964;-3.842;2022-10-16T06:07:48;28.60;;;2.88;;
29184;SDS011;16233;47.964;-3.842;2022-10-16T06:09:49;30.05;;;2.53;;
29184;SDS011;16233;47.964;-3.842;2022-10-16T06:11:50;40.78;;;2.53;;
29184;SDS011;16233;47.964;-3.842;2022-10-16T06:13:51;32.90;;;2.38;;
29184;SDS011;16233;47.964;-3.842;2022-10-16T06:15:53;32.90;;;2.30;;
29184;SDS011;16233;47.964;-3.842;2022-10-16T06:17:56;18.83;;;2.03;;
29184;SDS011;16233;47.964;-3.842;2022-10-16T06:19:59;20.30;;;2.53;;
29184;SDS011;16233;47.964;-3.842;2022-10-16T06:22:00;26.20;;;2.58;;
29184;SDS011;16233;47.964;-3.842;2022-10-16T06:24:01;36.42;;;3.10;;
29184;SDS011;16233;47.964;-3.842;2022-10-16T06:26:05;28.88;;;3.05;;
29184;SDS011;16233;47.964;-3.842;2022-10-16T06:28:07;36.17;;;3.63;;
29184;SDS011;16233;47.964;-3.842;2022-10-16T06:30:08;55.13;;;3.47;;
29184;SDS011;16233;47.964;-3.842;2022-10-16T06:32:10;44.28;;;3.97;;
29184;SDS011;16233;47.964;-3.842;2022-10-16T06:34:11;30.27;;;3.03;;
29184;SDS011;16233;47.964;-3.842;2022-10-16T06:36:14;29.70;;;3.10;;
29184;SDS011;16233;47.964;-3.842;2022-10-16T06:38:16;38.30;;;3.25;;
29184;SDS011;16233;47.964;-3.842;2022-10-16T06:40:17;30.00;;;3.67;;
29184;SDS011;16233;47.964;-3.842;2022-10-16T06:42:18;18.60;;;3.22;;
29184;SDS011;16233;47.964;-3.842;2022-10-16T06:44:19;27.05;;;2.95;;
29184;SDS011;16233;47.964;-3.842;2022-10-16T06:46:21;31.23;;;3.17;;
29184;SDS011;16233;47.964;-3.842;2022-10-16T06:48:23;14.30;;;3.75;;
29184;SDS011;16233;47.964;-3.842;2022-10-16T06:50:24;29.33;;;3.20;;
29184;SDS011;16233;47.964;-3.842;2022-10-16T06:52:28;28.27;;;3.42;;
29184;SDS011;16233;47.964;-3.842;2022-10-16T06:54:29;11.40;;;2.85;;
29184;SDS011;16233;47.964;-3.842;2022-10-16T06:56:31;16.80;;;3.17;;
29184;SDS011;16233;47.964;-3.842;2022-10-16T06:58:33;13.50;;;3.00;;
29184;SDS011;16233;47.964;-3.842;2022-10-16T07:00:34;25.27;;;3.45;;
29184;SDS011;16233;47.964;-3.842;2022-10-16T07:02:35;15.60;;;3.22;;
29184;SDS011;16233;47.964;-3.842;2022-10-16T07:04:36;16.42;;;3.20;;
29184;SDS011;16233;47.964;-3.842;2022-10-16T07:06:37;19.50;;;2.97;;
29184;SDS011;16233;47.964;-3.842;2022-10-16T07:08:40;33.38;;;3.50;;
29184;SDS011;16233;47.964;-3.842;2022-10-16T07:10:43;22.90;;;3.10;;
29184;SDS011;16233;47.964;-3.842;2022-10-16T07:12:44;24.85;;;3.00;;
29184;SDS011;16233;47.964;-3.842;2022-10-16T07:14:45;26.27;;;3.35;;
29184;SDS011;16233;47.964;-3.842;2022-10-16T07:16:46;23.85;;;3.05;;
29184;SDS011;16233;47.964;-3.842;2022-10-16T07:18:48;21.08;;;2.55;;
29184;SDS011;16233;47.964;-3.842;2022-10-16T07:20:49;14.95;;;2.85;;
29184;SDS011;16233;47.964;-3.842;2022-10-16T07:22:50;16.95;;;2.95;;
29184;SDS011;16233;47.964;-3.842;2022-10-16T07:24:53;25.90;;;3.25;;
29184;SDS011;16233;47.964;-3.842;2022-10-16T07:26:54;19.52;;;3.20;;
29184;SDS011;16233;47.964;-3.842;2022-10-16T07:28:55;19.33;;;2.88;;
29184;SDS011;16233;47.964;-3.842;2022-10-16T07:30:59;7.30;;;3.17;;
29184;SDS011;16233;47.964;-3.842;2022-10-16T07:33:01;13.35;;;3.35;;
29184;SDS011;16233;47.964;-3.842;2022-10-16T07:35:02;23.70;;;3.60;;
29184;SDS011;16233;47.964;-3.842;2022-10-16T07:37:03;11.30;;;3.50;;
29184;SDS011;16233;47.964;-3.842;2022-10-16T07:39:04;15.40;;;3.47;;
29184;SDS011;16233;47.964;-3.842;2022-10-16T07:41:07;5.13;;;3.25;;
29184;SDS011;16233;47.964;-3.842;2022-10-16T07:43:10;10.00;;;3.30;;
29184;SDS011;16233;47.964;-3.842;2022-10-16T07:45:11;15.48;;;3.42;;
29184;SDS011;16233;47.964;-3.842;2022-10-16T07:47:12;10.80;;;3.15;;
29184;SDS011;16233;47.964;-3.842;2022-10-16T07:49:13;9.23;;;3.47;;
29184;SDS011;16233;47.964;-3.842;2022-10-16T07:51:15;9.30;;;3.22;;
29184;SDS011;16233;47.964;-3.842;2022-10-16T07:53:17;11.63;;;3.42;;
29184;SDS011;16233;47.964;-3.842;2022-10-16T07:55:18;11.25;;;3.63;;
29184;SDS011;16233;47.964;-3.842;2022-10-16T07:59:31;6.78;;;3.03;;
29184;SDS011;16233;47.964;-3.842;2022-10-16T08:01:32;10.63;;;3.33;;
29184;SDS011;16233;47.964;-3.842;2022-10-16T08:03:33;11.50;;;3.08;;
29184;SDS011;16233;47.964;-3.842;2022-10-16T08:05:34;9.77;;;3.22;;
29184;SDS011;16233;47.964;-3.842;2022-10-16T08:07:35;13.93;;;3.10;;
29184;SDS011;16233;47.964;-3.842;2022-10-16T08:09:36;9.77;;;2.75;;
29184;SDS011;16233;47.964;-3.842;2022-10-16T08:11:37;16.67;;;3.58;;
29184;SDS011;16233;47.964;-3.842;2022-10-16T08:13:38;9.63;;;3.08;;
29184;SDS011;16233;47.964;-3.842;2022-10-16T08:15:41;7.57;;;2.58;;
29184;SDS011;16233;47.964;-3.842;2022-10-16T08:17:42;12.40;;;2.88;;
29184;SDS011;16233;47.964;-3.842;2022-10-16T08:19:46;15.82;;;2.95;;
29184;SDS011;16233;47.964;-3.842;2022-10-16T08:21:48;12.43;;;2.78;;
29184;SDS011;16233;47.964;-3.842;2022-10-16T08:23:49;16.95;;;2.90;;
29184;SDS011;16233;47.964;-3.842;2022-10-16T08:25:51;6.55;;;2.33;;
29184;SDS011;16233;47.964;-3.842;2022-10-16T08:27:52;5.78;;;2.50;;
29184;SDS011;16233;47.964;-3.842;2022-10-16T08:29:53;5.15;;;2.45;;
29184;SDS011;16233;47.964;-3.842;2022-10-16T08:31:56;6.43;;;2.55;;
29184;SDS011;16233;47.964;-3.842;2022-10-16T08:33:57;10.18;;;2.75;;
29184;SDS011;16233;47.964;-3.842;2022-10-16T08:35:58;10.98;;;2.33;;
29184;SDS011;16233;47.964;-3.842;2022-10-16T08:37:59;9.70;;;2.45;;
29184;SDS011;16233;47.964;-3.842;2022-10-16T08:40:03;9.23;;;2.20;;
29184;SDS011;16233;47.964;-3.842;2022-10-16T08:42:08;6.07;;;2.38;;
29184;SDS011;16233;47.964;-3.842;2022-10-16T08:47:02;7.95;;;1.98;;
29184;SDS011;16233;47.964;-3.842;2022-10-16T08:49:13;7.85;;;2.20;;
29184;SDS011;16233;47.964;-3.842;2022-10-16T08:51:17;9.02;;;2.35;;
29184;SDS011;16233;47.964;-3.842;2022-10-16T08:53:21;10.45;;;2.28;;
29184;SDS011;16233;47.964;-3.842;2022-10-16T08:55:30;11.60;;;3.35;;
29184;SDS011;16233;47.964;-3.842;2022-10-16T08:57:34;5.57;;;2.05;;
29184;SDS011;16233;47.964;-3.842;2022-10-16T08:59:34;10.23;;;2.30;;
29184;SDS011;16233;47.964;-3.842;2022-10-16T09:01:37;7.93;;;2.60;;
29184;SDS011;16233;47.964;-3.842;2022-10-16T09:03:46;11.82;;;3.05;;
29184;SDS011;16233;47.964;-3.842;2022-10-16T09:06:06;33.70;;;4.68;;
29184;SDS011;16233;47.964;-3.842;2022-10-16T09:08:14;35.83;;;3.45;;
29184;SDS011;16233;47.964;-3.842;2022-10-16T09:10:26;17.05;;;3.00;;
29184;SDS011;16233;47.964;-3.842;2022-10-16T09:12:36;9.85;;;2.88;;
29184;SDS011;16233;47.964;-3.842;2022-10-16T09:14:46;8.85;;;2.65;;
29184;SDS011;16233;47.964;-3.842;2022-10-16T09:16:57;8.95;;;3.13;;
29184;SDS011;16233;47.964;-3.842;2022-10-16T09:19:09;7.18;;;3.03;;
29184;SDS011;16233;47.964;-3.842;2022-10-16T09:21:18;11.45;;;3.22;;
29184;SDS011;16233;47.964;-3.842;2022-10-16T09:23:25;9.77;;;3.00;;
29184;SDS011;16233;47.964;-3.842;2022-10-16T09:25:26;10.18;;;3.42;;
29184;SDS011;16233;47.964;-3.842;2022-10-16T09:27:28;11.52;;;4.05;;
29184;SDS011;16233;47.964;-3.842;2022-10-16T09:29:29;10.15;;;2.92;;
29184;SDS011;16233;47.964;-3.842;2022-10-16T09:31:30;9.02;;;2.90;;
29184;SDS011;16233;47.964;-3.842;2022-10-16T09:33:33;8.73;;;3.42;;
29184;SDS011;16233;47.964;-3.842;2022-10-16T09:35:40;18.20;;;4.07;;
29184;SDS011;16233;47.964;-3.842;2022-10-16T09:37:43;10.30;;;2.90;;
29184;SDS011;16233;47.964;-3.842;2022-10-16T09:39:47;10.80;;;3.50;;
29184;SDS011;16233;47.964;-3.842;2022-10-16T09:41:49;10.98;;;2.83;;
29184;SDS011;16233;47.964;-3.842;2022-10-16T09:43:52;9.05;;;2.50;;
29184;SDS011;16233;47.964;-3.842;2022-10-16T09:45:56;10.55;;;3.30;;
29184;SDS011;16233;47.964;-3.842;2022-10-16T09:48:00;9.40;;;2.90;;
29184;SDS011;16233;47.964;-3.842;2022-10-16T09:50:19;8.65;;;2.83;;
29184;SDS011;16233;47.964;-3.842;2022-10-16T09:52:24;8.13;;;2.28;;
29184;SDS011;16233;47.964;-3.842;2022-10-16T09:54:25;7.35;;;2.45;;
29184;SDS011;16233;47.964;-3.842;2022-10-16T09:56:26;1.88;;;1.08;;
29184;SDS011;16233;47.964;-3.842;2022-10-16T09:58:29;5.72;;;1.25;;
29184;SDS011;16233;47.964;-3.842;2022-10-16T10:00:30;5.60;;;1.80;;
29184;SDS011;16233;47.964;-3.842;2022-10-16T10:02:34;12.27;;;1.73;;
29184;SDS011;16233;47.964;-3.842;2022-10-16T10:04:37;5.28;;;1.42;;
29184;SDS011;16233;47.964;-3.842;2022-10-16T10:06:43;5.88;;;1.60;;
29184;SDS011;16233;47.964;-3.842;2022-10-16T10:08:58;5.53;;;1.52;;
29184;SDS011;16233;47.964;-3.842;2022-10-16T10:11:04;2.67;;;1.50;;
29184;SDS011;16233;47.964;-3.842;2022-10-16T10:13:14;5.45;;;1.23;;
29184;SDS011;16233;47.964;-3.842;2022-10-16T10:15:17;4.55;;;1.45;;
29184;SDS011;16233;47.964;-3.842;2022-10-16T10:17:19;1.98;;;1.10;;
29184;SDS011;16233;47.964;-3.842;2022-10-16T10:19:22;3.70;;;1.35;;
29184;SDS011;16233;47.964;-3.842;2022-10-16T10:21:23;1.80;;;1.38;;
29184;SDS011;16233;47.964;-3.842;2022-10-16T10:23:25;2.08;;;1.20;;
29184;SDS011;16233;47.964;-3.842;2022-10-16T10:25:34;1.13;;;1.02;;
29184;SDS011;16233;47.964;-3.842;2022-10-16T10:27:48;3.38;;;1.20;;
29184;SDS011;16233;47.964;-3.842;2022-10-16T10:30:00;4.28;;;1.17;;
29184;SDS011;16233;47.964;-3.842;2022-10-16T10:32:11;3.58;;;1.33;;
29184;SDS011;16233;47.964;-3.842;2022-10-16T10:34:25;1.48;;;1.10;;
29184;SDS011;16233;47.964;-3.842;2022-10-16T10:36:35;3.95;;;2.00;;
29184;SDS011;16233;47.964;-3.842;2022-10-16T10:38:39;9.57;;;1.60;;
29184;SDS011;16233;47.964;-3.842;2022-10-16T10:40:51;5.78;;;1.80;;
29184;SDS011;16233;47.964;-3.842;2022-10-16T10:42:59;4.65;;;1.85;;
29184;SDS011;16233;47.964;-3.842;2022-10-16T10:45:12;3.63;;;1.20;;
29184;SDS011;16233;47.964;-3.842;2022-10-16T10:47:18;4.13;;;1.48;;
29184;SDS011;16233;47.964;-3.842;2022-10-16T10:49:31;6.55;;;1.15;;
29184;SDS011;16233;47.964;-3.842;2022-10-16T10:51:44;3.47;;;1.25;;
29184;SDS011;16233;47.964;-3.842;2022-10-16T10:53:55;4.88;;;1.55;;
29184;SDS011;16233;47.964;-3.842;2022-10-16T10:56:09;6.95;;;2.25;;
29184;SDS011;16233;47.964;-3.842;2022-10-16T10:58:26;5.47;;;1.55;;
29184;SDS011;16233;47.964;-3.842;2022-10-16T11:00:45;13.40;;;2.97;;
29184;SDS011;16233;47.964;-3.842;2022-10-16T11:02:58;7.53;;;2.78;;
29184;SDS011;16233;47.964;-3.842;2022-10-16T11:05:19;7.22;;;3.63;;
29184;SDS011;16233;47.964;-3.842;2022-10-16T11:07:32;6.05;;;3.35;;
29184;SDS011;16233;47.964;-3.842;2022-10-16T11:09:38;3.70;;;2.78;;
29184;SDS011;16233;47.964;-3.842;2022-10-16T11:11:45;7.30;;;4.30;;
29184;SDS011;16233;47.964;-3.842;2022-10-16T11:13:51;9.68;;;3.53;;
29184;SDS011;16233;47.964;-3.842;2022-10-16T11:15:59;4.75;;;1.92;;
29184;SDS011;16233;47.964;-3.842;2022-10-16T11:18:11;6.28;;;2.10;;
29184;SDS011;16233;47.964;-3.842;2022-10-16T11:20:20;10.70;;;3.03;;
29184;SDS011;16233;47.964;-3.842;2022-10-16T11:22:25;12.48;;;2.47;;
29184;SDS011;16233;47.964;-3.842;2022-10-16T11:24:34;12.98;;;3.55;;
29184;SDS011;16233;47.964;-3.842;2022-10-16T11:26:41;10.80;;;2.42;;
29184;SDS011;16233;47.964;-3.842;2022-10-16T11:28:46;6.20;;;1.60;;
29184;SDS011;16233;47.964;-3.842;2022-10-16T11:30:51;4.72;;;1.98;;
29184;SDS011;16233;47.964;-3.842;2022-10-16T11:32:59;13.65;;;2.35;;
29184;SDS011;16233;47.964;-3.842;2022-10-16T11:35:06;5.03;;;2.40;;
29184;SDS011;16233;47.964;-3.842;2022-10-16T11:37:17;3.85;;;2.08;;
29184;SDS011;16233;47.964;-3.842;2022-10-16T11:39:22;5.78;;;1.83;;
29184;SDS011;16233;47.964;-3.842;2022-10-16T11:41:27;6.20;;;2.10;;
29184;SDS011;16233;47.964;-3.842;2022-10-16T11:43:34;13.73;;;2.42;;
29184;SDS011;16233;47.964;-3.842;2022-10-16T11:45:41;4.20;;;1.88;;
29184;SDS011;16233;47.964;-3.842;2022-10-16T11:47:45;9.18;;;2.50;;
29184;SDS011;16233;47.964;-3.842;2022-10-16T11:49:52;6.72;;;2.38;;
29184;SDS011;16233;47.964;-3.842;2022-10-16T11:51:59;5.10;;;1.40;;
29184;SDS011;16233;47.964;-3.842;2022-10-16T11:54:08;3.88;;;1.70;;
29184;SDS011;16233;47.964;-3.842;2022-10-16T11:56:16;7.60;;;2.38;;
29184;SDS011;16233;47.964;-3.842;2022-10-16T11:58:21;8.15;;;2.65;;
29184;SDS011;16233;47.964;-3.842;2022-10-16T12:00:28;12.55;;;3.55;;
29184;SDS011;16233;47.964;-3.842;2022-10-16T12:02:36;7.45;;;1.88;;
29184;SDS011;16233;47.964;-3.842;2022-10-16T12:04:48;5.93;;;2.28;;
29184;SDS011;16233;47.964;-3.842;2022-10-16T12:06:56;4.28;;;1.70;;
29184;SDS011;16233;47.964;-3.842;2022-10-16T12:09:03;2.53;;;1.65;;
29184;SDS011;16233;47.964;-3.842;2022-10-16T12:11:07;11.63;;;2.45;;
29184;SDS011;16233;47.964;-3.842;2022-10-16T12:13:32;11.93;;;2.00;;
29184;SDS011;16233;47.964;-3.842;2022-10-16T12:15:34;3.75;;;1.17;;
29184;SDS011;16233;47.964;-3.842;2022-10-16T12:17:37;5.75;;;1.95;;
29184;SDS011;16233;47.964;-3.842;2022-10-16T12:19:39;9.90;;;2.15;;
29184;SDS011;16233;47.964;-3.842;2022-10-16T12:21:40;7.97;;;1.70;;
29184;SDS011;16233;47.964;-3.842;2022-10-16T12:23:46;8.07;;;1.77;;